Time;durP1;ratioP1;P1;durP2;ratioP2;P2;SDS_P1;SDS_P2;PMS_P1;PMS_P2;Temp;Humidity;BMP_temperature;BMP_pressure;BME280_temperature;BME280_humidity;BME280_pressure;Samples;Min_cycle;Max_cycle;Signal;HPM_P1;HPM_P2
2021/05/31 00:00:07;;;;;;;0.20;0.20;;;13.70;99.90;;;;;;4992655;28;20193;-87
2021/05/31 00:02:47;;;;;;;1.47;0.97;;;13.60;99.90;;;;;;4992839;28;20190;-86
2021/05/31 00:05:13;;;;;;;0.30;0.30;;;13.60;99.90;;;;;;4981903;28;20221;-86
2021/05/31 00:07:39;;;;;;;1.53;0.20;;;13.60;99.90;;;;;;4993128;28;20240;-86
2021/05/31 00:10:08;;;;;;;0.40;0.40;;;13.60;99.90;;;;;;4992673;28;20194;-87
2021/05/31 00:12:34;;;;;;;0.77;0.23;;;13.60;99.90;;;;;;4992759;28;20337;-87
2021/05/31 00:15:00;;;;;;;0.97;0.77;;;13.50;99.90;;;;;;4992728;28;20687;-86
2021/05/31 00:17:26;;;;;;;0.30;0.30;;;13.50;99.90;;;;;;4992560;28;20272;-88
2021/05/31 00:19:53;;;;;;;0.23;0.23;;;13.50;99.90;;;;;;4992820;28;20620;-86
2021/05/31 00:22:21;;;;;;;0.50;0.50;;;13.50;99.90;;;;;;4990628;28;20189;-86
2021/05/31 00:24:48;;;;;;;0.40;0.40;;;13.50;99.90;;;;;;4992884;28;20260;-86
2021/05/31 00:27:20;;;;;;;0.40;0.40;;;13.50;99.90;;;;;;5008627;28;20189;-86
2021/05/31 00:29:45;;;;;;;0.40;0.30;;;13.50;99.90;;;;;;4992668;28;20275;-86
2021/05/31 00:32:11;;;;;;;0.30;0.30;;;13.50;99.90;;;;;;4983830;28;20267;-87
2021/05/31 00:34:38;;;;;;;0.23;0.23;;;13.40;99.90;;;;;;4993577;28;20298;-87
2021/05/31 00:37:04;;;;;;;0.30;0.30;;;13.40;99.90;;;;;;4992284;28;20188;-86
2021/05/31 00:39:30;;;;;;;1.37;0.33;;;13.40;99.90;;;;;;4992274;28;20198;-86
2021/05/31 00:41:56;;;;;;;0.13;0.13;;;13.40;99.90;;;;;;4992448;28;20217;-87
2021/05/31 00:44:22;;;;;;;0.13;0.13;;;13.40;99.90;;;;;;4992533;28;20231;-86
2021/05/31 00:46:50;;;;;;;0.27;0.23;;;13.40;99.90;;;;;;4993757;28;20690;-86
2021/05/31 00:49:24;;;;;;;0.20;0.20;;;13.40;99.90;;;;;;4993453;28;20288;-86
2021/05/31 00:51:51;;;;;;;0.20;0.20;;;13.40;99.90;;;;;;4993337;28;20195;-86
2021/05/31 00:54:18;;;;;;;0.10;0.10;;;13.40;99.90;;;;;;4981290;28;20220;-87
2021/05/31 00:56:45;;;;;;;1.23;0.80;;;13.40;99.90;;;;;;4992190;28;20185;-87
2021/05/31 00:59:11;;;;;;;0.30;0.30;;;13.30;99.90;;;;;;4992317;28;20273;-86
2021/05/31 01:01:38;;;;;;;0.10;0.10;;;13.30;99.90;;;;;;4991765;28;20258;-87
2021/05/31 01:04:04;;;;;;;0.70;0.70;;;13.30;99.90;;;;;;4992742;28;20178;-87
2021/05/31 01:06:37;;;;;;;0.40;0.40;;;13.20;99.90;;;;;;4992136;28;20177;-86
2021/05/31 01:09:12;;;;;;;0.20;0.20;;;13.20;99.90;;;;;;4999746;28;20202;-86
2021/05/31 01:11:59;;;;;;;0.30;0.30;;;13.20;99.90;;;;;;5007400;28;20190;-86
2021/05/31 01:14:24;;;;;;;0.53;0.40;;;13.20;99.90;;;;;;5011463;28;20210;-86
2021/05/31 01:17:09;;;;;;;0.20;0.10;;;13.10;99.90;;;;;;4992765;28;20181;-87
2021/05/31 01:19:52;;;;;;;0.20;0.20;;;13.10;99.90;;;;;;4974602;28;20181;-86
2021/05/31 01:22:25;;;;;;;0.10;0.10;;;13.10;99.90;;;;;;4991678;28;20173;-87
2021/05/31 01:24:50;;;;;;;0.20;0.20;;;13.20;99.90;;;;;;4991789;28;20217;-87
2021/05/31 01:27:19;;;;;;;0.13;0.13;;;13.20;99.90;;;;;;4987739;28;20183;-87
2021/05/31 01:29:51;;;;;;;0.40;0.40;;;13.30;99.90;;;;;;4994257;28;20180;-86
2021/05/31 01:32:40;;;;;;;0.40;0.40;;;13.20;99.90;;;;;;4984654;28;20193;-86
2021/05/31 01:35:10;;;;;;;0.20;0.20;;;13.30;99.90;;;;;;5000902;28;20216;-87
2021/05/31 01:37:38;;;;;;;0.10;0.10;;;13.30;99.90;;;;;;4991450;28;20172;-86
2021/05/31 01:40:06;;;;;;;0.20;0.20;;;13.40;99.90;;;;;;4992785;28;20644;-87
2021/05/31 01:42:33;;;;;;;6.07;0.47;;;13.30;99.90;;;;;;4992287;28;20172;-87
2021/05/31 01:45:01;;;;;;;1.20;0.27;;;13.20;99.90;;;;;;4992948;28;20211;-86
2021/05/31 01:47:28;;;;;;;0.10;0.10;;;13.10;99.90;;;;;;4986322;28;20188;-87
2021/05/31 01:49:55;;;;;;;0.83;0.83;;;13.00;99.90;;;;;;4992518;28;20687;-87
2021/05/31 01:52:23;;;;;;;0.23;0.23;;;12.90;99.90;;;;;;4991537;28;20191;-87
2021/05/31 01:54:52;;;;;;;0.50;0.40;;;12.90;99.90;;;;;;4991413;28;20208;-86
2021/05/31 01:57:18;;;;;;;0.83;0.60;;;12.80;99.90;;;;;;4993094;28;20649;-86
2021/05/31 01:59:44;;;;;;;0.20;0.20;;;12.80;99.90;;;;;;4978658;28;20192;-87
2021/05/31 02:02:09;;;;;;;0.47;0.20;;;12.80;99.90;;;;;;4990909;28;20186;-86
2021/05/31 02:04:35;;;;;;;0.37;0.20;;;12.80;99.90;;;;;;4988623;28;20310;-87
2021/05/31 02:07:09;;;;;;;0.10;0.10;;;12.80;99.90;;;;;;4992615;28;20182;-87
2021/05/31 02:09:35;;;;;;;0.30;0.30;;;12.80;99.90;;;;;;4991387;28;20199;-86
2021/05/31 02:12:03;;;;;;;0.10;0.10;;;12.80;99.90;;;;;;4991890;28;20183;-86
2021/05/31 02:14:44;;;;;;;0.10;0.10;;;12.80;99.90;;;;;;4992485;28;20211;-87
2021/05/31 02:17:37;;;;;;;0.73;0.73;;;12.70;99.90;;;;;;4992732;28;20186;-87
2021/05/31 02:20:07;;;;;;;0.20;0.20;;;12.70;99.90;;;;;;5006215;28;20854;-86
2021/05/31 02:22:37;;;;;;;0.20;0.20;;;12.60;99.90;;;;;;4973698;28;20202;-87
2021/05/31 02:25:03;;;;;;;0.50;0.50;;;12.60;99.90;;;;;;4977300;28;20205;-86
2021/05/31 02:27:30;;;;;;;0.20;0.20;;;12.60;99.90;;;;;;4978666;28;20183;-85
2021/05/31 02:29:58;;;;;;;0.23;0.23;;;12.70;99.90;;;;;;5007178;28;20180;-87
2021/05/31 02:32:23;;;;;;;0.40;0.40;;;12.70;99.90;;;;;;4990508;28;20183;-87
2021/05/31 02:34:49;;;;;;;0.33;0.23;;;12.60;99.90;;;;;;5007332;28;20603;-87
2021/05/31 02:37:15;;;;;;;0.40;0.30;;;12.60;99.90;;;;;;4992773;28;20183;-86
2021/05/31 02:39:41;;;;;;;0.30;0.30;;;12.60;99.90;;;;;;4974301;28;20272;-87
2021/05/31 02:42:06;;;;;;;0.23;0.23;;;12.50;99.90;;;;;;4986198;28;20563;-87
2021/05/31 02:44:32;;;;;;;0.30;0.30;;;12.50;99.90;;;;;;4982437;28;20203;-87
2021/05/31 02:46:57;;;;;;;0.10;0.10;;;12.50;99.90;;;;;;4991336;28;20185;-87
2021/05/31 02:49:24;;;;;;;0.20;0.20;;;12.40;99.90;;;;;;4990875;28;20189;-87
2021/05/31 02:51:50;;;;;;;0.27;0.27;;;12.50;99.90;;;;;;4988492;28;20180;-86
2021/05/31 02:54:15;;;;;;;0.80;0.17;;;12.50;99.90;;;;;;4992340;28;20247;-86
2021/05/31 02:56:41;;;;;;;0.23;0.23;;;12.40;99.90;;;;;;4990838;28;20558;-86
2021/05/31 02:59:17;;;;;;;0.40;0.20;;;12.30;99.90;;;;;;4991879;28;20180;-87
2021/05/31 03:01:43;;;;;;;0.20;0.20;;;12.20;99.90;;;;;;4992682;28;20185;-86
2021/05/31 03:04:08;;;;;;;3.73;0.73;;;12.10;99.90;;;;;;4995554;28;20188;-87
2021/05/31 03:06:34;;;;;;;0.20;0.20;;;11.90;99.90;;;;;;4995914;28;20199;-88
2021/05/31 03:09:00;;;;;;;0.43;0.40;;;11.90;99.90;;;;;;4994897;28;20273;-86
2021/05/31 03:11:25;;;;;;;0.40;0.17;;;11.90;99.90;;;;;;4994247;28;20191;-86
2021/05/31 03:13:51;;;;;;;0.20;0.20;;;11.80;99.90;;;;;;4990221;28;20549;-87
2021/05/31 03:16:16;;;;;;;1.30;0.30;;;11.80;99.90;;;;;;4994221;28;20235;-87
2021/05/31 03:18:42;;;;;;;0.20;0.20;;;11.70;99.90;;;;;;4993953;28;20184;-87
2021/05/31 03:21:07;;;;;;;0.30;0.20;;;11.60;99.90;;;;;;4994910;28;20273;-87
2021/05/31 03:23:33;;;;;;;0.00;0.00;;;11.50;99.90;;;;;;4994894;28;20226;-86
2021/05/31 03:26:01;;;;;;;0.47;0.37;;;11.40;99.90;;;;;;4990152;28;20629;-86
2021/05/31 03:28:26;;;;;;;0.30;0.30;;;11.50;99.90;;;;;;4991870;28;20271;-85
2021/05/31 03:30:52;;;;;;;0.23;0.23;;;11.50;99.90;;;;;;4994319;28;20288;-85
2021/05/31 03:33:19;;;;;;;0.53;0.40;;;11.50;99.90;;;;;;5010298;28;20188;-85
2021/05/31 03:35:45;;;;;;;0.30;0.30;;;11.50;99.90;;;;;;4995066;28;20580;-86
2021/05/31 03:38:11;;;;;;;0.87;0.87;;;11.40;99.90;;;;;;4993751;28;20193;-88
2021/05/31 03:40:36;;;;;;;0.30;0.30;;;11.50;99.90;;;;;;4994671;28;20184;-89
2021/05/31 03:43:07;;;;;;;0.63;0.30;;;11.90;99.90;;;;;;4994462;28;20191;-86
2021/05/31 03:45:32;;;;;;;0.20;0.20;;;12.40;99.90;;;;;;5009291;28;20265;-85
2021/05/31 03:47:58;;;;;;;1.37;0.67;;;12.70;99.90;;;;;;4994693;28;20273;-85
2021/05/31 03:50:24;;;;;;;12.07;0.50;;;13.10;99.90;;;;;;4991499;28;20194;-85
2021/05/31 03:52:49;;;;;;;0.17;0.17;;;13.50;99.90;;;;;;4993495;28;20193;-87
2021/05/31 03:55:17;;;;;;;0.57;0.40;;;13.90;99.90;;;;;;4995024;28;20269;-85
2021/05/31 03:57:42;;;;;;;0.93;0.30;;;14.50;99.90;;;;;;4995310;28;20172;-86
2021/05/31 04:00:10;;;;;;;0.40;0.40;;;14.80;99.90;;;;;;4994975;28;20228;-86
2021/05/31 04:02:43;;;;;;;0.20;0.20;;;15.30;99.90;;;;;;4986293;28;20276;-87
2021/05/31 04:05:12;;;;;;;0.40;0.40;;;15.70;99.90;;;;;;4994044;28;20312;-86
2021/05/31 04:13:06;;;;;;;0.70;0.70;;;16.60;99.90;;;;;;4988942;28;20190;-85
2021/05/31 04:15:32;;;;;;;0.20;0.20;;;16.50;99.90;;;;;;4990358;28;20213;-86
2021/05/31 04:17:57;;;;;;;2.37;1.80;;;16.20;99.90;;;;;;4993060;28;20188;-85
2021/05/31 04:20:23;;;;;;;0.23;0.23;;;15.70;99.90;;;;;;4992995;28;20214;-85
2021/05/31 04:22:49;;;;;;;0.23;0.23;;;15.00;99.90;;;;;;4993963;28;20669;-85
2021/05/31 04:25:15;;;;;;;0.30;0.30;;;14.50;99.90;;;;;;4994139;28;20205;-85
2021/05/31 04:27:41;;;;;;;2.27;0.23;;;14.20;99.90;;;;;;5009789;28;20186;-86
2021/05/31 04:30:07;;;;;;;0.23;0.23;;;14.10;99.90;;;;;;4994891;28;20187;-86
2021/05/31 04:32:33;;;;;;;0.10;0.10;;;13.90;99.90;;;;;;4986977;28;20242;-85
2021/05/31 04:34:58;;;;;;;0.20;0.20;;;13.90;99.90;;;;;;4992284;28;20224;-86
2021/05/31 04:37:26;;;;;;;0.17;0.17;;;13.60;99.90;;;;;;4992606;28;20637;-85
2021/05/31 04:39:52;;;;;;;0.20;0.20;;;13.40;99.90;;;;;;4992705;28;20661;-86
2021/05/31 04:42:17;;;;;;;0.43;0.10;;;13.50;99.90;;;;;;4993590;28;20180;-85
2021/05/31 04:44:43;;;;;;;0.40;0.40;;;13.50;99.90;;;;;;4992138;28;20628;-87
2021/05/31 04:47:08;;;;;;;0.63;0.47;;;13.60;99.90;;;;;;4992707;28;20192;-88
2021/05/31 04:49:34;;;;;;;0.17;0.17;;;13.40;99.90;;;;;;4992736;28;20191;-86
2021/05/31 04:52:00;;;;;;;0.23;0.23;;;13.40;99.90;;;;;;4992432;28;20637;-87
2021/05/31 04:54:39;;;;;;;0.20;0.20;;;13.30;99.90;;;;;;4993758;28;20286;-86
2021/05/31 04:57:04;;;;;;;0.33;0.20;;;13.30;99.90;;;;;;4980659;28;20550;-86
2021/05/31 04:59:30;;;;;;;0.47;0.33;;;13.40;99.90;;;;;;4980700;28;20185;-87
2021/05/31 05:01:55;;;;;;;1.20;0.20;;;13.40;99.90;;;;;;4978666;28;20184;-87
2021/05/31 05:04:21;;;;;;;0.30;0.30;;;13.40;99.90;;;;;;4987586;28;20220;-88
2021/05/31 05:06:46;;;;;;;0.40;0.40;;;13.50;99.90;;;;;;4993823;28;20210;-87
2021/05/31 05:09:12;;;;;;;0.20;0.20;;;13.60;99.90;;;;;;4990059;28;20214;-87
2021/05/31 05:11:37;;;;;;;0.20;0.20;;;13.60;99.90;;;;;;4993077;28;20195;-87
2021/05/31 05:14:03;;;;;;;0.10;0.10;;;13.70;99.90;;;;;;4992138;28;20205;-88
2021/05/31 05:16:29;;;;;;;0.40;0.40;;;13.80;99.90;;;;;;4991663;28;20174;-87
2021/05/31 05:18:55;;;;;;;0.40;0.40;;;13.90;99.90;;;;;;4992238;28;20275;-86
2021/05/31 05:21:21;;;;;;;0.20;0.20;;;14.00;99.90;;;;;;4993685;28;20174;-86
2021/05/31 05:23:50;;;;;;;0.20;0.20;;;14.10;99.90;;;;;;4992318;28;20183;-86
2021/05/31 05:26:21;;;;;;;0.50;0.50;;;14.20;99.90;;;;;;4992396;28;20207;-86
2021/05/31 05:28:49;;;;;;;0.27;0.27;;;14.30;99.90;;;;;;4990981;28;20667;-85
2021/05/31 05:31:15;;;;;;;0.10;0.10;;;14.50;99.90;;;;;;4999224;28;20179;-86
2021/05/31 05:33:42;;;;;;;0.17;0.17;;;14.70;99.90;;;;;;4989717;28;20730;-86
2021/05/31 05:41:55;;;;;;;0.20;0.20;;;15.00;99.90;;;;;;4992690;28;20193;-87
2021/05/31 05:49:45;;;;;;;0.43;0.43;;;15.30;99.90;;;;;;4993156;28;20189;-87
2021/05/31 05:52:13;;;;;;;0.47;0.40;;;15.30;99.90;;;;;;4992634;28;20262;-87
2021/05/31 05:54:39;;;;;;;0.20;0.20;;;15.50;99.90;;;;;;4992685;28;20225;-87
2021/05/31 05:57:05;;;;;;;0.20;0.20;;;15.50;99.90;;;;;;4983570;28;20177;-88
2021/05/31 05:59:30;;;;;;;0.30;0.30;;;15.70;99.90;;;;;;4991728;28;20181;-87
2021/05/31 06:01:56;;;;;;;2.30;2.10;;;15.80;99.90;;;;;;5007409;28;20625;-87
2021/05/31 06:04:22;;;;;;;0.57;0.30;;;16.00;99.90;;;;;;5008959;28;20242;-87
2021/05/31 06:06:47;;;;;;;0.20;0.20;;;16.30;99.90;;;;;;4988726;28;20184;-85
2021/05/31 06:09:15;;;;;;;0.10;0.10;;;16.20;99.90;;;;;;4989373;28;20189;-84
2021/05/31 06:11:41;;;;;;;0.20;0.20;;;16.50;99.90;;;;;;4989604;28;20191;-85
2021/05/31 06:14:07;;;;;;;0.20;0.20;;;16.70;99.90;;;;;;4990742;28;20260;-86
2021/05/31 06:16:33;;;;;;;0.60;0.60;;;16.80;99.90;;;;;;4991432;28;20185;-85
2021/05/31 06:18:58;;;;;;;0.40;0.40;;;16.70;99.90;;;;;;5006628;28;20199;-85
2021/05/31 06:21:24;;;;;;;2.03;0.40;;;16.80;99.90;;;;;;4987361;28;20194;-85
2021/05/31 06:23:50;;;;;;;0.40;0.40;;;17.20;99.90;;;;;;4989706;28;20195;-85
2021/05/31 06:26:15;;;;;;;0.20;0.20;;;17.20;99.90;;;;;;4981025;28;20706;-86
2021/05/31 06:28:42;;;;;;;0.30;0.30;;;17.10;99.90;;;;;;4987215;28;20630;-85
2021/05/31 06:31:07;;;;;;;0.30;0.30;;;17.30;99.90;;;;;;4989176;28;20202;-86
2021/05/31 06:33:33;;;;;;;0.77;0.63;;;17.00;99.90;;;;;;4991266;28;20267;-85
2021/05/31 06:36:01;;;;;;;1.07;0.50;;;17.10;99.90;;;;;;4992059;28;20196;-86
2021/05/31 06:38:27;;;;;;;0.20;0.20;;;17.20;99.90;;;;;;4996191;28;20179;-85
2021/05/31 06:40:52;;;;;;;3.17;0.27;;;17.50;99.90;;;;;;4996246;28;20565;-86
2021/05/31 06:43:18;;;;;;;0.13;0.13;;;17.80;99.90;;;;;;4994589;28;20223;-85
2021/05/31 06:45:44;;;;;;;0.37;0.37;;;17.50;99.90;;;;;;4996207;28;20211;-85
2021/05/31 06:48:10;;;;;;;0.20;0.20;;;17.30;99.90;;;;;;4995626;28;20190;-85
2021/05/31 06:50:36;;;;;;;0.40;0.40;;;17.50;99.90;;;;;;4995970;28;20187;-86
2021/05/31 06:53:03;;;;;;;0.30;0.30;;;17.90;99.90;;;;;;4995705;28;20195;-86
2021/05/31 06:55:33;;;;;;;0.30;0.30;;;17.70;99.90;;;;;;4994732;28;20215;-85
2021/05/31 06:57:59;;;;;;;0.23;0.23;;;17.40;99.90;;;;;;4995753;28;20223;-85
2021/05/31 07:00:26;;;;;;;0.53;0.53;;;17.70;99.90;;;;;;4995928;28;20224;-86
2021/05/31 07:02:52;;;;;;;0.30;0.30;;;18.10;99.90;;;;;;4994703;28;20194;-85
2021/05/31 07:05:19;;;;;;;0.17;0.17;;;18.40;99.90;;;;;;4995604;28;20339;-85
2021/05/31 07:07:44;;;;;;;0.50;0.50;;;18.60;99.90;;;;;;4994185;28;20192;-85
2021/05/31 07:10:12;;;;;;;0.73;0.30;;;18.10;99.90;;;;;;4994946;28;20334;-86
2021/05/31 07:12:39;;;;;;;0.87;0.43;;;17.60;99.90;;;;;;4994603;28;20199;-85
2021/05/31 07:15:08;;;;;;;0.30;0.30;;;18.10;99.90;;;;;;4993747;28;20711;-86
2021/05/31 07:17:35;;;;;;;0.30;0.20;;;18.40;99.90;;;;;;4994057;28;20184;-86
2021/05/31 07:20:05;;;;;;;0.40;0.40;;;18.50;99.90;;;;;;4995076;28;20180;-85
2021/05/31 07:22:31;;;;;;;0.23;0.23;;;18.70;99.90;;;;;;4996677;28;20186;-86
2021/05/31 07:24:57;;;;;;;0.20;0.20;;;18.90;99.90;;;;;;4990875;28;20236;-84
2021/05/31 07:27:22;;;;;;;0.47;0.47;;;19.10;99.90;;;;;;4993074;28;20577;-84
2021/05/31 07:29:48;;;;;;;0.53;0.50;;;19.30;99.90;;;;;;4995507;28;20184;-83
2021/05/31 07:32:14;;;;;;;0.33;0.27;;;19.30;99.90;;;;;;4993717;28;20215;-83
2021/05/31 07:34:39;;;;;;;0.67;0.50;;;19.30;99.90;;;;;;4995165;28;20296;-84
2021/05/31 07:37:06;;;;;;;0.30;0.30;;;19.20;99.90;;;;;;4998956;28;20184;-86
2021/05/31 07:39:32;;;;;;;10.70;0.40;;;19.30;99.90;;;;;;4994053;28;20180;-85
2021/05/31 07:41:57;;;;;;;0.30;0.30;;;19.60;99.90;;;;;;4994664;28;20199;-85
2021/05/31 07:44:23;;;;;;;0.20;0.20;;;19.80;99.90;;;;;;4993696;28;20246;-85
2021/05/31 07:46:48;;;;;;;0.40;0.40;;;20.00;99.90;;;;;;4994750;28;20180;-85
2021/05/31 07:49:14;;;;;;;0.40;0.23;;;19.80;99.90;;;;;;4994045;28;20717;-86
2021/05/31 07:51:44;;;;;;;5.20;0.20;;;19.30;99.90;;;;;;4993517;28;20180;-85
2021/05/31 07:54:11;;;;;;;0.40;0.40;;;19.70;99.90;;;;;;4993576;28;20572;-85
2021/05/31 07:56:37;;;;;;;0.47;0.47;;;19.50;99.90;;;;;;4994738;28;20182;-85
2021/05/31 07:59:03;;;;;;;0.20;0.20;;;19.60;99.90;;;;;;4993636;28;20187;-83
2021/05/31 08:01:29;;;;;;;0.37;0.33;;;19.80;99.90;;;;;;4993414;28;20305;-83
2021/05/31 08:03:55;;;;;;;0.80;0.50;;;19.60;99.90;;;;;;4994881;28;20314;-83
2021/05/31 08:06:20;;;;;;;0.30;0.30;;;19.40;99.90;;;;;;4993410;28;20271;-84
2021/05/31 08:08:46;;;;;;;0.23;0.23;;;18.90;99.90;;;;;;4993202;28;20191;-83
2021/05/31 08:11:12;;;;;;;0.47;0.37;;;19.50;99.90;;;;;;4990226;28;20657;-83
2021/05/31 08:13:38;;;;;;;2.07;0.57;;;20.00;99.90;;;;;;4988041;28;20739;-85
2021/05/31 08:16:05;;;;;;;0.20;0.20;;;20.30;99.90;;;;;;4994351;28;20208;-83
2021/05/31 08:18:31;;;;;;;0.30;0.30;;;20.60;99.90;;;;;;4990059;28;20676;-84
2021/05/31 08:20:57;;;;;;;0.30;0.30;;;20.10;99.90;;;;;;4992487;28;20287;-83
2021/05/31 08:23:22;;;;;;;0.47;0.47;;;20.40;99.90;;;;;;4995830;28;20259;-84
2021/05/31 08:25:48;;;;;;;0.30;0.30;;;20.40;99.90;;;;;;4994110;28;20207;-83
2021/05/31 08:28:14;;;;;;;0.90;0.40;;;20.10;99.90;;;;;;4992992;28;20198;-83
2021/05/31 08:30:43;;;;;;;0.47;0.47;;;20.20;99.90;;;;;;4993031;28;20219;-83
2021/05/31 08:33:09;;;;;;;0.20;0.20;;;20.60;99.90;;;;;;4994095;28;20175;-85
2021/05/31 08:35:36;;;;;;;0.53;0.53;;;20.80;99.90;;;;;;4992657;28;20301;-84
2021/05/31 08:38:03;;;;;;;0.27;0.27;;;21.10;99.90;;;;;;4992880;28;20569;-83
2021/05/31 08:40:28;;;;;;;0.60;0.60;;;20.70;99.90;;;;;;4993869;28;20176;-84
2021/05/31 08:42:54;;;;;;;0.20;0.20;;;21.00;99.90;;;;;;4993459;28;20596;-84
2021/05/31 08:45:21;;;;;;;0.67;0.67;;;21.30;99.90;;;;;;4992825;28;20212;-86
2021/05/31 08:47:49;;;;;;;1.23;0.80;;;20.30;99.90;;;;;;4993779;28;20323;-85
2021/05/31 08:50:19;;;;;;;0.60;0.60;;;20.70;99.90;;;;;;4993797;28;20187;-86
2021/05/31 08:52:46;;;;;;;0.40;0.40;;;21.10;99.90;;;;;;4993456;28;20214;-85
2021/05/31 08:55:15;;;;;;;0.20;0.20;;;20.90;99.90;;;;;;4992260;28;20222;-86
2021/05/31 08:57:41;;;;;;;0.43;0.30;;;20.90;99.90;;;;;;4993325;28;20195;-85
2021/05/31 09:00:11;;;;;;;0.70;0.30;;;21.10;99.90;;;;;;4993621;28;20640;-86
2021/05/31 09:02:37;;;;;;;0.30;0.30;;;20.90;99.90;;;;;;4991978;28;20180;-86
2021/05/31 09:05:05;;;;;;;0.80;0.80;;;21.30;99.90;;;;;;4993370;28;20219;-85
2021/05/31 09:07:30;;;;;;;0.40;0.40;;;21.50;99.90;;;;;;4993758;28;20515;-85
2021/05/31 09:09:56;;;;;;;0.20;0.20;;;21.60;99.90;;;;;;4992251;28;20186;-86
2021/05/31 09:12:28;;;;;;;2.57;0.67;;;21.00;99.90;;;;;;4991978;28;20184;-85
2021/05/31 09:14:55;;;;;;;0.70;0.37;;;20.60;99.90;;;;;;4991607;28;20227;-86
2021/05/31 09:17:26;;;;;;;0.33;0.23;;;21.00;99.90;;;;;;4991901;28;20203;-86
2021/05/31 09:19:52;;;;;;;0.30;0.30;;;21.30;99.90;;;;;;4993278;28;20172;-85
2021/05/31 09:22:18;;;;;;;0.67;0.60;;;21.20;99.90;;;;;;4993888;28;20202;-85
2021/05/31 09:25:23;;;;;;;0.53;0.53;;;21.50;99.90;;;;;;4993000;28;20215;-86
2021/05/31 09:27:53;;;;;;;0.70;0.70;;;21.50;99.90;;;;;;4986308;28;20723;-86
2021/05/31 09:30:30;;;;;;;1.03;0.30;;;20.60;99.90;;;;;;4978675;28;20223;-86
2021/05/31 09:32:56;;;;;;;0.53;0.53;;;20.60;99.90;;;;;;4997760;28;20187;-86
2021/05/31 09:35:23;;;;;;;0.47;0.47;;;21.00;99.90;;;;;;4991648;28;20242;-85
2021/05/31 09:37:50;;;;;;;0.40;0.40;;;20.90;99.90;;;;;;4992931;28;20712;-86
2021/05/31 09:40:26;;;;;;;0.30;0.30;;;20.60;99.90;;;;;;4988543;28;20292;-86
2021/05/31 09:42:54;;;;;;;0.50;0.50;;;20.30;99.90;;;;;;4982954;28;20194;-86
2021/05/31 09:45:20;;;;;;;0.30;0.30;;;20.30;99.90;;;;;;4979211;28;20215;-85
2021/05/31 09:47:46;;;;;;;0.50;0.50;;;20.40;99.90;;;;;;4993932;28;20188;-85
2021/05/31 09:50:21;;;;;;;0.13;0.13;;;20.50;99.90;;;;;;4992623;28;20196;-85
2021/05/31 09:52:47;;;;;;;0.40;0.40;;;20.10;99.90;;;;;;4991874;28;20179;-86
2021/05/31 09:55:14;;;;;;;0.40;0.40;;;20.10;99.90;;;;;;4992507;28;20326;-86
2021/05/31 09:57:39;;;;;;;0.73;0.73;;;20.20;99.90;;;;;;4993052;28;20253;-85
2021/05/31 10:00:08;;;;;;;0.40;0.40;;;20.10;99.90;;;;;;4993329;28;20195;-86
2021/05/31 10:08:02;;;;;;;1.40;0.70;;;21.00;99.90;;;;;;4993099;28;20190;-85
2021/05/31 10:10:29;;;;;;;0.47;0.47;;;21.00;99.90;;;;;;4990013;28;20192;-85
2021/05/31 10:12:55;;;;;;;0.30;0.30;;;20.90;99.90;;;;;;4995418;28;20663;-86
2021/05/31 10:15:24;;;;;;;0.30;0.30;;;20.90;99.90;;;;;;4995261;28;20262;-85
2021/05/31 10:17:54;;;;;;;0.40;0.40;;;20.60;99.90;;;;;;4996829;28;20211;-86
2021/05/31 10:20:20;;;;;;;0.30;0.30;;;20.70;99.90;;;;;;4997234;28;20187;-85
2021/05/31 10:22:46;;;;;;;0.30;0.30;;;21.10;99.90;;;;;;4999352;28;20176;-86
2021/05/31 10:25:14;;;;;;;0.47;0.47;;;21.20;99.90;;;;;;4996410;28;20278;-85
2021/05/31 10:27:41;;;;;;;0.30;0.30;;;21.20;99.90;;;;;;4995054;28;20662;-85
2021/05/31 10:30:08;;;;;;;0.50;0.50;;;21.20;99.90;;;;;;4995059;28;20180;-85
2021/05/31 10:32:34;;;;;;;1.43;0.50;;;20.80;99.90;;;;;;4994930;28;20226;-86
2021/05/31 10:35:00;;;;;;;1.00;1.00;;;21.20;99.90;;;;;;4996148;28;20235;-86
2021/05/31 10:37:30;;;;;;;0.40;0.40;;;21.40;99.90;;;;;;4994880;28;20675;-85
2021/05/31 10:40:04;;;;;;;3.17;0.60;;;21.40;99.90;;;;;;4994660;28;20195;-86
2021/05/31 10:42:41;;;;;;;0.40;0.37;;;21.60;99.90;;;;;;4995831;28;20174;-85
2021/05/31 10:45:19;;;;;;;0.20;0.20;;;21.50;99.90;;;;;;4996318;28;20206;-86
2021/05/31 10:48:06;;;;;;;0.50;0.50;;;21.50;99.90;;;;;;5003486;28;20188;-85
2021/05/31 10:50:31;;;;;;;0.60;0.57;;;21.10;99.90;;;;;;4990383;28;20180;-85
2021/05/31 10:52:57;;;;;;;0.63;0.63;;;20.90;99.90;;;;;;5010644;28;20194;-85
2021/05/31 10:55:26;;;;;;;0.50;0.50;;;20.70;99.90;;;;;;4994658;28;20640;-85
2021/05/31 10:57:57;;;;;;;0.63;0.63;;;20.50;99.90;;;;;;4995908;28;20660;-87
2021/05/31 11:00:30;;;;;;;0.50;0.50;;;20.70;99.90;;;;;;4995362;28;20175;-86
2021/05/31 11:03:06;;;;;;;0.43;0.43;;;20.90;99.90;;;;;;4994335;28;20246;-86
2021/05/31 11:05:35;;;;;;;0.27;0.27;;;21.40;99.90;;;;;;4995564;28;20217;-85
2021/05/31 11:08:01;;;;;;;0.60;0.60;;;21.20;99.90;;;;;;4994275;28;20275;-86
2021/05/31 11:10:32;;;;;;;1.17;0.50;;;21.50;99.90;;;;;;4994391;28;20270;-85
2021/05/31 11:13:15;;;;;;;0.50;0.50;;;21.80;99.90;;;;;;4994006;28;20234;-86
2021/05/31 11:15:43;;;;;;;0.73;0.60;;;21.80;99.90;;;;;;4992746;28;20243;-85
2021/05/31 11:18:09;;;;;;;0.60;0.40;;;21.90;99.90;;;;;;4995531;28;20175;-85
2021/05/31 11:20:40;;;;;;;0.40;0.20;;;22.30;99.90;;;;;;4994181;28;20188;-85
2021/05/31 11:23:06;;;;;;;0.40;0.40;;;22.00;99.90;;;;;;4995404;28;20730;-86
2021/05/31 11:25:32;;;;;;;0.40;0.40;;;21.30;99.90;;;;;;4993930;28;20204;-86
2021/05/31 11:28:03;;;;;;;0.83;0.53;;;21.50;99.90;;;;;;4995795;28;20214;-85
2021/05/31 11:30:34;;;;;;;0.60;0.47;;;21.70;99.90;;;;;;4994766;28;20264;-85
2021/05/31 11:33:03;;;;;;;0.40;0.40;;;22.20;99.90;;;;;;4995054;28;20176;-85
2021/05/31 11:35:31;;;;;;;0.60;0.60;;;22.20;99.90;;;;;;4994766;28;20290;-85
2021/05/31 11:37:58;;;;;;;0.50;0.50;;;21.90;99.90;;;;;;4995115;28;20183;-85
2021/05/31 11:40:27;;;;;;;0.50;0.50;;;21.10;99.90;;;;;;4994815;28;20175;-86
2021/05/31 11:42:58;;;;;;;0.40;0.30;;;21.20;99.90;;;;;;4993709;28;20183;-86
2021/05/31 11:45:27;;;;;;;0.30;0.30;;;21.30;99.90;;;;;;4993494;28;20204;-86
2021/05/31 11:47:58;;;;;;;3.50;0.67;;;21.80;99.90;;;;;;4993398;28;20665;-85
2021/05/31 11:50:25;;;;;;;0.30;0.30;;;21.90;99.90;;;;;;4995292;28;20180;-86
2021/05/31 11:52:51;;;;;;;1.43;0.43;;;21.50;99.90;;;;;;4995104;28;20501;-85
2021/05/31 11:55:25;;;;;;;0.43;0.40;;;22.10;99.90;;;;;;4994510;28;20207;-85
2021/05/31 11:57:51;;;;;;;0.70;0.70;;;21.50;99.90;;;;;;4994484;28;20167;-86
2021/05/31 12:00:22;;;;;;;0.47;0.47;;;21.40;99.90;;;;;;4993505;28;20180;-85
2021/05/31 12:02:48;;;;;;;0.40;0.40;;;21.60;99.90;;;;;;4994010;28;20183;-86
2021/05/31 12:05:15;;;;;;;0.40;0.40;;;21.30;99.90;;;;;;4994099;28;20571;-86
2021/05/31 12:07:45;;;;;;;0.90;0.60;;;21.70;99.90;;;;;;4993370;28;20335;-86
2021/05/31 12:10:12;;;;;;;0.53;0.50;;;21.90;99.90;;;;;;4993369;28;20187;-86
2021/05/31 12:12:39;;;;;;;0.63;0.63;;;22.00;99.90;;;;;;4993933;28;20180;-86
2021/05/31 12:15:05;;;;;;;1.17;0.70;;;22.30;99.90;;;;;;4993964;28;20227;-85
2021/05/31 12:17:32;;;;;;;0.97;0.50;;;22.30;99.90;;;;;;4994057;28;20179;-86
2021/05/31 12:19:57;;;;;;;0.20;0.20;;;22.30;99.90;;;;;;4994059;28;20176;-86
2021/05/31 12:22:26;;;;;;;0.70;0.70;;;22.60;99.90;;;;;;4995248;28;20274;-86
2021/05/31 12:24:54;;;;;;;0.50;0.50;;;22.80;99.90;;;;;;4994328;28;20311;-85
2021/05/31 12:27:33;;;;;;;0.40;0.40;;;22.30;99.90;;;;;;4992548;28;20255;-85
2021/05/31 12:29:59;;;;;;;0.70;0.70;;;22.30;99.90;;;;;;4994082;28;20179;-86
2021/05/31 12:32:26;;;;;;;0.83;0.50;;;22.90;99.90;;;;;;4992332;28;20206;-86
2021/05/31 12:34:52;;;;;;;0.63;0.50;;;22.50;99.90;;;;;;4993380;28;20212;-86
2021/05/31 12:37:23;;;;;;;0.83;0.40;;;22.50;99.90;;;;;;4993901;28;20661;-86
2021/05/31 12:39:50;;;;;;;0.30;0.30;;;21.90;99.90;;;;;;4992097;28;20652;-86
2021/05/31 12:42:27;;;;;;;0.43;0.43;;;22.10;99.90;;;;;;4992564;28;20233;-86
2021/05/31 12:45:01;;;;;;;0.70;0.30;;;22.30;99.90;;;;;;4992259;28;20225;-85
2021/05/31 12:47:36;;;;;;;0.73;0.60;;;22.30;99.90;;;;;;4992435;28;20241;-86
2021/05/31 12:50:06;;;;;;;0.27;0.27;;;22.60;99.90;;;;;;4992258;28;20725;-85
2021/05/31 12:52:35;;;;;;;0.60;0.60;;;22.80;99.90;;;;;;4986738;28;20180;-86
2021/05/31 12:55:06;;;;;;;0.50;0.30;;;22.70;99.90;;;;;;4988577;28;20220;-86
2021/05/31 12:57:40;;;;;;;0.20;0.20;;;22.40;99.90;;;;;;4986338;28;20212;-86
2021/05/31 13:00:13;;;;;;;0.40;0.40;;;22.50;99.90;;;;;;4979204;28;20203;-85
2021/05/31 13:02:47;;;;;;;0.50;0.50;;;22.40;99.90;;;;;;4992932;28;20211;-86
2021/05/31 13:05:15;;;;;;;0.40;0.40;;;22.10;99.90;;;;;;4991952;28;20578;-86
2021/05/31 13:07:47;;;;;;;0.63;0.63;;;22.20;99.90;;;;;;4991860;28;20187;-85
2021/05/31 13:10:15;;;;;;;0.50;0.50;;;22.70;99.90;;;;;;4984052;28;20218;-86
2021/05/31 13:12:59;;;;;;;1.67;0.60;;;23.10;99.90;;;;;;4991529;28;20278;-86